YBCG/OOL METAR and TAF weather

Enter ICAO airport designator
Station Type Date Time Source
YBCG METAR 2020/05/29 19:00 UTC NOAA

YBCG 291900Z AUTO 20007KT 9999 // NCD 16/12 Q1023


Station Type Date Time Source
YBCG Decoded METAR 2020/05/29 19:00 UTC NOAA

Coolangatta Airport Aws, Australia (YBCG) 28-10S 153-30E 6M
May 29, 2020 - 03:00 PM EDT / 2020.05.29 1900 UTC
Wind: from the SSW (200 degrees) at 8 MPH (7 KT):0
Visibility: greater than 7 mile(s):0
Temperature: 60 F (16 C)
Dew Point: 53 F (12 C)
Relative Humidity: 77%
Pressure (altimeter): 30.21 in. Hg (1023 hPa)
ob: YBCG 291900Z AUTO 20007KT 9999 // NCD 16/12 Q1023
cycle: 19

Station Type Date Time Source
YBCG TAF 2020/05/29 18:45 UTC NOAA

TAF
AMD TAF
AMD YBCG 291843Z 2918/3018 19008KT 9999 -SHRA SCT025
FM292200 17012KT 9999 -SHRA SCT035
FM300200 14014KT 9999 NSW SCT035
FM300900 19008KT 9999 -SHRA SCT025 INTER 2918/3002 15020KT 3000 SHRA BKN012

Example: see airport list